WEATHER DATA

YESTERDAY
Time Temp. Dewp. Hum. Bar. 1h Prec. 24h Prec.
00:02 15.6 10.8 73 1014 0.0000 0.0000
00:12 15.5 10.7 73 1014 0.0000 0.0000
00:23 15.4 10.8 74 1014 0.0000 0.0000
00:33 15.3 10.9 75 1013.9 0.0000 0.0000
00:42 15.3 10.9 75 1013.9 0.0000 0.0000
00:53 15.3 10.9 75 1013.9 0.0000 0.0000
01:03 15.1 10.5 74 1014 0.0000 0.0000
01:13 15 10.4 74 1013.9 0.0000 0.0000
01:23 14.8 10.4 75 1014 0.0000 0.0000
01:34 14.8 10.6 76 1013.9 0.0000 0.0000
01:44 15 10.8 76 1013.8 0.0000 0.0000
01:53 15.1 10.7 75 1013.8 0.0000 0.0000
02:04 15 10.4 74 1013.7 0.0000 0.0000
02:14 15 10.8 76 1013.8 0.0000 0.0000
02:24 15 10.8 76 1013.6 0.0000 0.0000
02:34 15 10.8 76 1013.6 0.0000 0.0000
02:45 15 10.8 76 1013.6 0.0000 0.0000
02:55 15 10.8 76 1013.6 0.0000 0.0000
03:04 15 10.8 76 1013.5 0.0000 0.0000
03:14 14.8 10.6 76 1013.2 0.0000 0.0000
03:25 14.8 10.6 76 1013.4 0.0000 0.0000
03:35 14.6 10.4 76 1013.4 0.0000 0.0000
03:45 14.4 10.2 76 1013.2 0.0000 0.0000
03:55 14.2 10.2 77 1013.2 0.0000 0.0000
04:06 14.1 10.1 77 1013.2 0.0000 0.0000
04:15 14 9.8 76 1013.2 0.0000 0.0000
04:25 13.8 9.8 77 1013.1 0.0000 0.0000
04:36 13.7 9.9 78 1013.2 0.0000 0.0000
04:46 13.6 10 79 1013.2 0.0000 0.0000
04:56 13.7 10.1 79 1013.1 0.0000 0.0000
05:06 13.7 10.1 79 1013.1 0.0000 0.0000
05:16 13.7 10.1 79 1013 0.0000 0.0000
05:26 13.8 10.4 80 1013.3 0.0000 0.0000
05:36 13.8 10.2 79 1013.4 0.0000 0.0000
05:47 13.7 9.9 78 1013.4 0.0000 0.0000
05:57 13.5 9.6 77 1013.3 0.0000 0.0000
06:07 13.2 9.5 78 1013.3 0.0000 0.0000
06:17 13.1 9.5 79 1013.4 0.0000 0.0000
06:27 13.1 9.7 80 1013.3 0.0000 0.0000
06:37 13.1 9.7 80 1013.5 0.0000 0.0000
06:47 13.2 9.8 80 1013.4 0.0000 0.0000
06:57 13.2 9.8 80 1013.5 0.0000 0.0000
07:08 13.3 9.9 80 1013.3 0.0000 0.0000
07:18 13.3 9.9 80 1013.6 0.0000 0.0000
07:27 13.3 9.9 80 1013.4 0.0000 0.0000
07:38 13.2 9.6 79 1013.5 0.0000 0.0000
07:48 13.1 9.7 80 1013.7 0.0000 0.0000
07:58 12.9 9.5 80 1013.8 0.0000 0.0000
08:08 12.8 9.6 81 1013.7 0.0000 0.0000
08:19 12.8 9.6 81 1013.8 0.0000 0.0000
08:29 12.7 9.7 82 1013.8 0.0000 0.0000
08:38 12.8 10 83 1013.9 0.0000 0.0000
08:49 12.9 10.1 83 1013.9 0.0000 0.0000
08:59 12.9 10.1 83 1013.9 0.0000 0.0000
09:09 13 10.2 83 1014.1 0.0000 0.0000
09:19 13.2 10.4 83 1014 0.0000 0.0000
09:30 13.5 10.7 83 1013.8 0.0000 0.0000
09:39 13.7 10.7 82 1013.9 0.0000 0.0000
09:49 13.9 10.9 82 1013.9 0.0000 0.0000
09:59 14 11 82 1013.8 0.0000 0.0000
10:20 14.5 11.5 82 1013.8 0.0000 0.0000
10:30 14.8 11.8 82 1013.9 0.0000 0.0000
10:40 15 12 82 1013.9 0.0000 0.0000
10:50 15.2 12 81 1013.9 0.0000 0.0000
11:00 15.5 12.3 81 1014 0.0000 0.0000
11:10 15.7 12.5 81 1014 0.0000 0.0000
11:21 16.1 12.8 81 1014.2 0.0000 0.0000
11:31 16.7 13.2 80 1014.3 0.0000 0.0000
11:41 17.6 13.5 77 1014.1 0.0000 0.0000
11:51 18.3 13.6 74 1014.2 0.0000 0.0000
12:01 18.8 13.7 72 1014.2 0.0000 0.0000
12:11 19.2 13.6 70 1014.1 0.0000 0.0000
12:21 19.5 13.4 68 1014 0.0000 0.0000
12:32 19.7 13.4 67 1014.1 0.0000 0.0000
12:46 20.1 13.8 67 1013.9 0.0000 0.0000
12:55 20.3 13.7 66 1013.9 0.0000 0.0000
13:06 20.5 13.9 66 1013.9 0.0000 0.0000
13:16 20.6 14 66 1013.7 0.0000 0.0000
13:26 20.8 13.7 64 1013.7 0.0000 0.0000
13:36 20.9 13.8 64 1013.6 0.0000 0.0000
13:47 21.1 14 64 1013.6 0.0000 0.0000
13:56 21.3 14.2 64 1013.5 0.0000 0.0000
14:06 21.5 14.2 63 1013.6 0.0000 0.0000
14:17 21.6 14 62 1013.5 0.0000 0.0000
14:27 21.7 14.1 62 1013.2 0.0000 0.0000
14:37 21.8 14.2 62 1013.4 0.0000 0.0000
14:47 21.8 14 61 1013.4 0.0000 0.0000
14:57 21.9 13.8 60 1013.3 0.0000 0.0000
15:07 21.9 13.8 60 1013.3 0.0000 0.0000
15:17 21.9 13.8 60 1013.1 0.0000 0.0000
15:28 22 13.9 60 1013.2 0.0000 0.0000
15:37 22.1 14.2 61 1013.2 0.0000 0.0000
15:47 22.2 13.8 59 1013.1 0.0000 0.0000
15:57 22.3 14.2 60 1013.2 0.0000 0.0000
16:08 22.3 13.9 59 1013.1 0.0000 0.0000
16:18 22.4 14 59 1013.2 0.0000 0.0000
16:28 22.4 13.7 58 1013.1 0.0000 0.0000
16:38 22.2 13.8 59 1013.2 0.0000 0.0000
16:48 22 13.6 59 1013.1 0.0000 0.0000
16:58 21.7 13.6 60 1013.1 0.0000 0.0000
17:08 21.5 13.7 61 1013.1 0.0000 0.0000
17:19 21.3 13.5 61 1013.2 0.0000 0.0000
17:29 21.1 13.3 61 1013.2 0.0000 0.0000
17:39 20.9 13.4 62 1013.3 0.0000 0.0000
17:49 20.6 13.1 62 1013.3 0.0000 0.0000
17:59 20.5 13.2 63 1013.3 0.0000 0.0000
18:09 20.2 13.2 64 1013.3 0.0000 0.0000
18:19 19.9 13.4 66 1013.6 0.0000 0.0000
18:29 19.6 13.1 66 1013.5 0.0000 0.0000
18:40 19.3 12.8 66 1013.7 0.0000 0.0000
18:50 19 12.5 66 1013.8 0.0000 0.0000
19:00 18.6 12.4 67 1013.8 0.0000 0.0000
19:10 18.3 12.3 68 1013.9 0.0000 0.0000
19:20 17.9 11.9 68 1014.1 0.0000 0.0000
19:30 17.6 11.9 69 1014.1 0.0000 0.0000
19:40 17.4 11.9 70 1014.3 0.0000 0.0000
19:51 17.2 11.9 71 1014.2 0.0000 0.0000
20:01 16.9 11.6 71 1014.5 0.0000 0.0000
20:10 16.7 11.4 71 1014.7 0.0000 0.0000
20:21 16.5 11.6 73 1014.5 0.0000 0.0000
20:31 16.3 12.1 76 1014.7 0.0000 0.0000
20:41 16.2 11.8 75 1014.9 0.0000 0.0000
20:51 16.1 11.9 76 1014.7 0.0000 0.0000
21:02 15.9 11.7 76 1015 0.0000 0.0000
21:12 15.8 11.6 76 1015 0.0000 0.0000
21:21 15.6 11.6 77 1015.1 0.0000 0.0000
21:31 15.5 11.5 77 1015.1 0.0000 0.0000
21:42 15.4 11.4 77 1015.2 0.0000 0.0000
21:52 15.2 11.4 78 1015.1 0.0000 0.0000
22:02 15.1 11.3 78 1015.2 0.0000 0.0000
22:12 15 11.4 79 1015.3 0.0000 0.0000
22:32 14.8 11.4 80 1015.4 0.0000 0.0000
22:42 14.8 11.8 82 1015.4 0.0000 0.0000
22:53 14.8 11.8 82 1015.4 0.0000 0.0000
23:03 14.8 11.9 83 1015.6 0.0000 0.0000
23:13 14.7 11.5 81 1015.5 0.0000 0.0000
23:23 14.6 11.4 81 1015.6 0.0000 0.0000
23:34 14.4 11.4 82 1015.5 0.0000 0.0000
23:43 14.3 11.1 81 1015.6 0.0000 0.0000
23:53 14.1 11.1 82 1015.6 0.0000 0.0000

DAY STATISTIC

2018-10-17
TEMPERATURE
AVERAGE
16.6
HIGH
22.4
16:18
LOW
12.7
08:29
PRESSURE
AVERAGE
1013.9
HIGH
1015.6
23:03
LOW
1013.0
05:16
DEWPOINT
AVERAGE
11.7
HIGH
14.2
13:56
LOW
9.5
06:07
HUMIDITY
AVERAGE
73
HIGH
83
08:38
LOW
58
16:28
PRECIPITATION
RAIN HOUR
0.0
RAIN DAY
0.0
TEMPERATURE (°C)
LOW
12.7
HIGH
22.4
AVERAGE
16.6
PRESSURE (hpa)
LOW
1013.0
HIGH
1015.6
AVERAGE
1013.9
DEVICE